createdAt,value
2019-03-22T00:01:01.709Z,101480.52
2019-03-22T00:03:36.942Z,101487.24
2019-03-22T00:06:11.507Z,101476.73
2019-03-22T00:08:46.776Z,101475.81
2019-03-22T00:11:23.546Z,101470.44
2019-03-22T00:13:58.073Z,101473.58
2019-03-22T00:16:33.428Z,101467.85
2019-03-22T00:19:08.414Z,101471.59
2019-03-22T00:21:43.293Z,101471.05
2019-03-22T00:24:18.333Z,101469.65
2019-03-22T00:26:53.295Z,101474.77
2019-03-22T00:29:28.223Z,101480.70
2019-03-22T00:32:03.266Z,101476.85
2019-03-22T00:34:38.152Z,101466.05
2019-03-22T00:37:12.632Z,101463.41
2019-03-22T00:39:48.547Z,101463.98
2019-03-22T00:42:23.436Z,101466.14
2019-03-22T00:44:57.938Z,101456.48
2019-03-22T00:47:33.070Z,101457.45
2019-03-22T00:50:08.415Z,101458.27
2019-03-22T00:52:43.166Z,101460.75
2019-03-22T00:55:18.061Z,101460.42
2019-03-22T00:57:52.737Z,101462.78
2019-03-22T01:00:28.126Z,101464.76
2019-03-22T01:03:03.478Z,101460.91
2019-03-22T01:05:38.410Z,101463.95
2019-03-22T01:08:13.425Z,101458.22
2019-03-22T01:10:48.709Z,101451.84
2019-03-22T01:13:23.893Z,101459.66
2019-03-22T01:16:03.302Z,101460.83
2019-03-22T01:18:38.334Z,101458.68
2019-03-22T01:21:12.958Z,101459.81
2019-03-22T01:23:48.497Z,101452.61
2019-03-22T01:26:23.847Z,101455.41
2019-03-22T01:28:58.556Z,101456.42
2019-03-22T01:31:34.751Z,101459.22
2019-03-22T01:34:12.579Z,101451.67
2019-03-22T01:36:47.472Z,101456.02
2019-03-22T01:39:22.271Z,101459.75
2019-03-22T01:41:56.967Z,101457.70
2019-03-22T01:44:31.537Z,101461.55
2019-03-22T01:47:06.623Z,101462.58
2019-03-22T01:49:41.316Z,101465.09
2019-03-22T01:52:16.076Z,101460.91
2019-03-22T01:54:51.143Z,101458.34
2019-03-22T01:57:26.280Z,101456.69
2019-03-22T02:00:01.038Z,101456.31
2019-03-22T02:02:37.657Z,101454.73
2019-03-22T02:05:13.158Z,101449.95
2019-03-22T02:07:47.642Z,101449.14
2019-03-22T02:10:22.930Z,101445.86
2019-03-22T02:12:58.461Z,101442.83
2019-03-22T02:15:33.816Z,101446.44
2019-03-22T02:18:09.064Z,101447.42
2019-03-22T02:20:44.080Z,101448.10
2019-03-22T02:23:19.210Z,101446.68
2019-03-22T02:25:54.225Z,101443.23
2019-03-22T02:28:29.719Z,101445.10
2019-03-22T02:31:04.528Z,101438.41
2019-03-22T02:33:39.490Z,101438.97
2019-03-22T02:36:15.912Z,101443.85
2019-03-22T02:38:51.185Z,101447.37
2019-03-22T02:41:26.487Z,101441.17
2019-03-22T02:44:01.344Z,101429.11
2019-03-22T02:46:36.581Z,101431.33
2019-03-22T02:49:11.079Z,101431.20
2019-03-22T02:51:45.707Z,101434.30
2019-03-22T02:54:25.560Z,101428.42
2019-03-22T02:57:08.179Z,101427.22
2019-03-22T02:59:42.905Z,101432.28
2019-03-22T03:02:17.866Z,101426.28
2019-03-22T03:04:53.577Z,101422.80
2019-03-22T03:07:28.752Z,101415.48
2019-03-22T03:10:06.264Z,101417.58
2019-03-22T03:12:41.327Z,101419.45
2019-03-22T03:15:19.501Z,101421.03
2019-03-22T03:17:54.310Z,101416.84
2019-03-22T03:20:29.275Z,101419.13
2019-03-22T03:23:05.212Z,101416.02
2019-03-22T03:25:40.038Z,101414.45
2019-03-22T03:28:15.291Z,101411.17
2019-03-22T03:30:51.148Z,101407.36
2019-03-22T03:33:25.961Z,101407.19
2019-03-22T03:36:00.933Z,101408.80
2019-03-22T03:38:37.565Z,101412.06
2019-03-22T03:41:12.344Z,101409.02
2019-03-22T03:43:47.492Z,101407.87
2019-03-22T03:46:21.920Z,101410.38
2019-03-22T03:48:56.489Z,101411.91
2019-03-22T03:51:32.455Z,101406.81
2019-03-22T03:54:08.675Z,101407.50
2019-03-22T03:56:43.119Z,101402.91
2019-03-22T03:59:19.403Z,101406.19
2019-03-22T04:01:55.610Z,101414.84
2019-03-22T04:04:30.254Z,101413.31
2019-03-22T04:07:05.255Z,101418.28
2019-03-22T04:09:40.359Z,101415.56
2019-03-22T04:12:15.976Z,101415.52
2019-03-22T04:14:51.336Z,101416.30
2019-03-22T04:17:26.071Z,101413.16
2019-03-22T04:20:01.202Z,101417.41
2019-03-22T04:22:36.562Z,101414.29
2019-03-22T04:25:11.400Z,101413.70
2019-03-22T04:27:46.928Z,101410.63
2019-03-22T04:30:21.483Z,101413.92
2019-03-22T04:32:56.062Z,101411.71
2019-03-22T04:35:31.399Z,101407.95
2019-03-22T04:38:08.532Z,101404.84
2019-03-22T04:40:43.885Z,101401.12
2019-03-22T04:43:20.242Z,101403.67
2019-03-22T04:45:56.591Z,101399.45
2019-03-22T04:48:38.285Z,101400.34
2019-03-22T04:51:13.247Z,101396.80
2019-03-22T04:53:59.950Z,101401.64
2019-03-22T04:56:38.432Z,101394.52
2019-03-22T04:59:19.239Z,101398.03
2019-03-22T05:01:59.914Z,101399.89
2019-03-22T05:04:39.232Z,101401.42
2019-03-22T05:07:14.759Z,101407.33
2019-03-22T05:09:50.235Z,101408.17
2019-03-22T05:12:26.448Z,101410.83
2019-03-22T05:15:06.223Z,101405.32
2019-03-22T05:17:42.231Z,101406.82
2019-03-22T05:20:20.070Z,101402.16
2019-03-22T05:22:57.075Z,101404.14
2019-03-22T05:25:33.218Z,101406.59
2019-03-22T05:28:13.066Z,101401.89
2019-03-22T05:32:08.450Z,101404.02
2019-03-22T05:34:43.656Z,101403.49
2019-03-22T05:37:21.446Z,101397.42
2019-03-22T05:39:57.550Z,101397.97
2019-03-22T05:42:32.797Z,101393.28
2019-03-22T05:45:09.898Z,101398.66
2019-03-22T05:47:46.669Z,101393.02
2019-03-22T05:50:22.407Z,101398.98
2019-03-22T05:52:58.884Z,101401.58
2019-03-22T05:55:33.463Z,101403.61
2019-03-22T05:58:08.906Z,101402.98
2019-03-22T06:00:45.354Z,101408.61
2019-03-22T06:03:20.383Z,101410.70
2019-03-22T06:05:55.457Z,101411.44
2019-03-22T06:08:31.194Z,101414.31
2019-03-22T06:11:06.472Z,101413.20
2019-03-22T06:13:44.227Z,101414.20
2019-03-22T06:16:19.920Z,101418.17
2019-03-22T06:18:54.611Z,101420.64
2019-03-22T06:21:31.515Z,101416.20
2019-03-22T06:24:06.967Z,101417.28
2019-03-22T06:26:41.583Z,101421.91
2019-03-22T06:29:16.651Z,101420.00
2019-03-22T06:31:51.966Z,101416.52
2019-03-22T06:34:27.728Z,101421.84
2019-03-22T06:37:05.028Z,101423.53
2019-03-22T06:39:41.006Z,101427.88
2019-03-22T06:42:18.294Z,101424.27
2019-03-22T06:44:52.870Z,101427.86
2019-03-22T06:47:28.838Z,101431.05
2019-03-22T06:50:03.769Z,101431.30
2019-03-22T06:52:39.042Z,101438.72
2019-03-22T06:55:14.442Z,101444.80
2019-03-22T06:58:00.715Z,101450.03
2019-03-22T07:00:36.094Z,101448.94
2019-03-22T07:03:11.430Z,101445.84
2019-03-22T07:05:50.262Z,101445.95
2019-03-22T07:08:24.755Z,101453.53
2019-03-22T07:10:59.633Z,101450.45
2019-03-22T07:13:34.658Z,101451.13
2019-03-22T07:16:11.229Z,101448.53
2019-03-22T07:18:46.427Z,101448.33
2019-03-22T07:21:21.311Z,101449.03
2019-03-22T07:23:58.206Z,101454.08
2019-03-22T07:26:32.819Z,101450.05
2019-03-22T07:29:15.520Z,101452.38
2019-03-22T07:31:51.171Z,101452.17
2019-03-22T07:34:27.839Z,101455.14
2019-03-22T07:37:04.401Z,101456.12
2019-03-22T07:39:42.962Z,101459.75
2019-03-22T07:42:18.799Z,101456.83
2019-03-22T07:44:53.486Z,101455.88
2019-03-22T07:47:30.177Z,101461.91
2019-03-22T07:50:07.706Z,101454.37
2019-03-22T07:52:42.374Z,101456.97
2019-03-22T07:55:22.593Z,101460.14
2019-03-22T07:57:58.074Z,101459.23
2019-03-22T08:00:37.534Z,101458.06
2019-03-22T08:03:13.903Z,101462.81
2019-03-22T08:05:51.683Z,101462.39
2019-03-22T08:08:28.584Z,101457.96
2019-03-22T08:11:03.238Z,101456.94
2019-03-22T08:13:38.143Z,101451.14
2019-03-22T08:16:13.227Z,101456.49
2019-03-22T08:18:48.068Z,101455.38
2019-03-22T08:21:23.674Z,101458.09
2019-03-22T08:23:59.465Z,101465.95
2019-03-22T08:26:36.298Z,101456.91
2019-03-22T08:29:11.283Z,101450.55
2019-03-22T08:31:47.054Z,101449.59
2019-03-22T08:34:22.974Z,101440.90
2019-03-22T08:36:59.234Z,101441.05
2019-03-22T08:39:34.171Z,101440.11
2019-03-22T08:42:10.369Z,101438.25
2019-03-22T08:44:46.888Z,101428.52
2019-03-22T08:47:33.147Z,101431.13
2019-03-22T08:50:09.537Z,101429.87
2019-03-22T08:52:44.291Z,101431.42
2019-03-22T08:55:23.322Z,101425.52
2019-03-22T08:57:58.392Z,101424.58
2019-03-22T09:00:39.073Z,101418.04
2019-03-22T09:03:19.033Z,101413.45
2019-03-22T09:05:54.767Z,101408.95
2019-03-22T09:08:34.472Z,101409.14
2019-03-22T09:11:10.369Z,101399.77
2019-03-22T09:13:47.907Z,101393.13
2019-03-22T09:16:24.354Z,101399.41
2019-03-22T09:18:59.599Z,101391.89
2019-03-22T09:21:35.367Z,101394.11
2019-03-22T09:24:11.599Z,101392.00
2019-03-22T09:26:47.846Z,101384.55
2019-03-22T09:29:24.212Z,101386.56
2019-03-22T09:31:59.371Z,101384.01
2019-03-22T09:34:34.563Z,101383.52
2019-03-22T09:37:18.241Z,101383.65
2019-03-22T09:39:56.716Z,101381.72
2019-03-22T09:42:45.962Z,101378.19
2019-03-22T09:45:22.181Z,101374.80
2019-03-22T09:47:59.113Z,101369.59
2019-03-22T09:50:34.814Z,101372.30
2019-03-22T09:53:10.884Z,101369.31
2019-03-22T09:55:45.537Z,101361.84
2019-03-22T09:58:20.710Z,101358.66
2019-03-22T10:00:56.828Z,101352.16
2019-03-22T10:03:32.497Z,101345.71
2019-03-22T10:06:08.963Z,101338.48
2019-03-22T10:08:44.952Z,101337.11
2019-03-22T10:11:20.015Z,101331.84
2019-03-22T10:13:56.758Z,101332.20
2019-03-22T10:16:31.568Z,101332.62
2019-03-22T10:19:07.365Z,101322.06
2019-03-22T10:21:42.285Z,101314.72
2019-03-22T10:24:17.162Z,101317.63
2019-03-22T10:26:54.050Z,101310.21
2019-03-22T10:29:30.148Z,101310.82
2019-03-22T10:32:04.840Z,101308.20
2019-03-22T10:34:40.008Z,101310.95
2019-03-22T10:37:17.150Z,101305.53
2019-03-22T10:39:53.480Z,101304.41
2019-03-22T10:42:28.727Z,101299.22
2019-03-22T10:45:07.042Z,101299.82
2019-03-22T10:47:41.946Z,101296.86
2019-03-22T10:50:16.968Z,101291.36
2019-03-22T10:52:52.079Z,101289.27
2019-03-22T10:55:30.295Z,101288.41
2019-03-22T10:58:19.914Z,101286.25
2019-03-22T11:00:56.574Z,101286.66
2019-03-22T11:03:32.740Z,101281.11
2019-03-22T11:06:08.680Z,101275.72
2019-03-22T11:08:43.240Z,101269.80
2019-03-22T11:11:17.887Z,101271.58
2019-03-22T11:13:53.418Z,101270.78
2019-03-22T11:16:28.322Z,101272.69
2019-03-22T11:19:06.200Z,101266.07
2019-03-22T11:21:41.737Z,101265.25
2019-03-22T11:24:19.912Z,101267.01
2019-03-22T11:26:56.227Z,101262.95
2019-03-22T11:29:32.860Z,101261.49
2019-03-22T11:32:12.535Z,101248.91
2019-03-22T11:34:48.252Z,101251.53
2019-03-22T11:37:27.848Z,101246.45
2019-03-22T11:40:02.565Z,101248.38
2019-03-22T11:42:38.411Z,101240.06
2019-03-22T11:45:20.241Z,101234.16
2019-03-22T11:47:56.607Z,101223.78
2019-03-22T11:50:32.344Z,101220.19
2019-03-22T11:53:07.273Z,101216.11
2019-03-22T11:55:42.020Z,101215.50
2019-03-22T11:58:17.723Z,101211.63
2019-03-22T12:00:54.045Z,101204.55
2019-03-22T12:03:28.747Z,101195.36
2019-03-22T12:06:05.915Z,101193.78
2019-03-22T12:08:41.330Z,101199.37
2019-03-22T12:11:17.083Z,101194.95
2019-03-22T12:13:51.664Z,101175.34
2019-03-22T12:16:27.575Z,101184.39
2019-03-22T12:19:02.533Z,101181.02
2019-03-22T12:21:37.251Z,101176.02
2019-03-22T12:24:12.495Z,101163.83
2019-03-22T12:26:48.714Z,101163.21
2019-03-22T12:29:25.267Z,101167.98
2019-03-22T12:32:01.399Z,101166.00
2019-03-22T12:34:36.200Z,101159.22
2019-03-22T12:37:11.564Z,101151.45
2019-03-22T12:39:47.713Z,101149.36
2019-03-22T12:42:24.000Z,101143.58
2019-03-22T12:45:00.308Z,101143.06
2019-03-22T12:47:36.499Z,101134.00
2019-03-22T12:50:14.200Z,101136.06
2019-03-22T12:52:51.054Z,101125.88
2019-03-22T12:55:26.236Z,101128.67
2019-03-22T12:58:02.012Z,101123.48
2019-03-22T13:00:37.839Z,101122.27
2019-03-22T13:03:14.040Z,101113.69
2019-03-22T13:05:51.630Z,101108.95
2019-03-22T13:08:28.117Z,101103.67
2019-03-22T13:11:03.681Z,101095.92
2019-03-22T13:13:38.889Z,101088.25
2019-03-22T13:16:14.557Z,101088.03
2019-03-22T13:18:51.630Z,101083.38
2019-03-22T13:21:27.895Z,101077.65
2019-03-22T13:24:03.442Z,101077.59
2019-03-22T13:26:39.350Z,101077.75
2019-03-22T13:29:20.615Z,101073.56
2019-03-22T13:31:56.507Z,101068.79
2019-03-22T13:34:32.578Z,101066.80
2019-03-22T13:37:09.203Z,101065.66
2019-03-22T13:39:49.094Z,101063.27
2019-03-22T13:42:24.087Z,101064.70
2019-03-22T13:44:59.900Z,101062.84
2019-03-22T13:47:40.155Z,101059.36
2019-03-22T13:50:21.916Z,101048.40
2019-03-22T13:52:57.086Z,101045.91
2019-03-22T13:55:34.395Z,101040.23
2019-03-22T13:58:10.239Z,101040.33
2019-03-22T14:00:45.713Z,101039.50
2019-03-22T14:03:20.907Z,101031.86
2019-03-22T14:05:57.937Z,101034.34
2019-03-22T14:08:36.138Z,101028.86
2019-03-22T14:11:11.213Z,101025.61
2019-03-22T14:13:47.962Z,101026.03
2019-03-22T14:16:22.708Z,101023.00
2019-03-22T14:19:00.139Z,101017.22
2019-03-22T14:21:38.051Z,101021.60
2019-03-22T14:24:13.263Z,101015.42
2019-03-22T14:26:48.109Z,101014.88
2019-03-22T14:29:24.498Z,101009.67
2019-03-22T14:32:00.690Z,101015.39
2019-03-22T14:34:36.119Z,101006.39
2019-03-22T14:37:10.961Z,100998.23
2019-03-22T14:39:47.423Z,100998.00
2019-03-22T14:42:25.070Z,100992.80
2019-03-22T14:45:00.415Z,100995.07
2019-03-22T14:47:38.058Z,100994.18
2019-03-22T14:50:13.144Z,100985.42
2019-03-22T14:52:48.691Z,100980.30
2019-03-22T14:55:23.933Z,100980.29
2019-03-22T14:57:59.470Z,100979.27
2019-03-22T15:00:37.279Z,100977.02
2019-03-22T15:03:23.959Z,100976.48
2019-03-22T15:06:03.775Z,100973.08
2019-03-22T15:08:46.059Z,100965.16
2019-03-22T15:11:21.799Z,100965.17
2019-03-22T15:14:06.980Z,100963.65
2019-03-22T15:17:06.520Z,100963.81
2019-03-22T15:20:02.725Z,100952.33
2019-03-22T15:23:03.160Z,100952.88
2019-03-22T15:26:02.967Z,100946.58
2019-03-22T15:29:02.274Z,100944.33
2019-03-22T15:32:00.573Z,100950.53
2019-03-22T15:34:58.677Z,100944.44
2019-03-22T15:37:55.286Z,100942.39
2019-03-22T15:40:30.213Z,100941.91
2019-03-22T15:43:06.044Z,100935.37
2019-03-22T15:45:40.883Z,100936.92
2019-03-22T15:48:16.887Z,100932.08
2019-03-22T15:51:00.961Z,100931.44
2019-03-22T15:53:37.097Z,100929.59
2019-03-22T15:56:12.639Z,100921.91
2019-03-22T15:58:48.535Z,100922.33
2019-03-22T16:01:23.789Z,100924.62
2019-03-22T16:04:02.291Z,100928.44
2019-03-22T16:06:37.295Z,100925.23
2019-03-22T16:09:15.461Z,100922.16
2019-03-22T16:11:52.076Z,100918.23
2019-03-22T16:14:29.888Z,100916.88
2019-03-22T16:17:06.776Z,100918.90
2019-03-22T16:19:43.583Z,100922.56
2019-03-22T16:22:20.037Z,100922.65
2019-03-22T16:24:55.189Z,100919.33
2019-03-22T16:27:29.981Z,100922.65
2019-03-22T16:30:07.659Z,100918.48
2019-03-22T16:32:42.970Z,100919.62
2019-03-22T16:35:20.726Z,100919.53
2019-03-22T16:38:01.456Z,100920.39
2019-03-22T16:40:38.315Z,100922.05
2019-03-22T16:43:14.938Z,100922.98
2019-03-22T16:45:49.589Z,100920.41
2019-03-22T16:48:27.326Z,100912.15
2019-03-22T16:51:02.544Z,100912.96
2019-03-22T16:53:39.124Z,100915.41
2019-03-22T16:56:15.231Z,100910.22
2019-03-22T16:58:51.396Z,100915.68
2019-03-22T17:01:26.472Z,100913.67
2019-03-22T17:04:04.741Z,100912.13
2019-03-22T17:06:39.880Z,100908.43
2019-03-22T17:09:18.705Z,100910.00
2019-03-22T17:11:53.880Z,100915.92
2019-03-22T17:14:28.588Z,100919.48
2019-03-22T17:17:03.687Z,100920.48
2019-03-22T17:19:39.612Z,100916.44
2019-03-22T17:22:16.505Z,100913.66
2019-03-22T17:24:58.927Z,100914.87
2019-03-22T17:27:34.584Z,100919.00
2019-03-22T17:30:14.323Z,100918.37
2019-03-22T17:32:52.127Z,100918.02
2019-03-22T17:35:27.598Z,100917.69
2019-03-22T17:38:03.089Z,100917.47
2019-03-22T17:40:40.757Z,100915.61
2019-03-22T17:43:16.130Z,100914.89
2019-03-22T17:45:54.781Z,100913.70
2019-03-22T17:48:30.648Z,100908.44
2019-03-22T17:51:06.221Z,100912.95
2019-03-22T17:53:43.008Z,100914.97
2019-03-22T17:56:18.897Z,100922.81
2019-03-22T17:58:53.801Z,100920.10
2019-03-22T18:01:45.275Z,100922.70
2019-03-22T18:04:25.645Z,100921.48
2019-03-22T18:07:11.828Z,100922.22
2019-03-22T18:09:51.710Z,100923.27
2019-03-22T18:12:27.724Z,100927.95
2019-03-22T18:15:06.897Z,100931.11
2019-03-22T18:17:43.546Z,100932.63
2019-03-22T18:20:25.843Z,100933.86
2019-03-22T18:23:02.301Z,100937.46
2019-03-22T18:25:37.704Z,100937.39
2019-03-22T18:28:16.009Z,100941.79
2019-03-22T18:30:52.661Z,100944.34
2019-03-22T18:33:27.900Z,100944.73
2019-03-22T18:36:06.813Z,100946.43
2019-03-22T18:38:46.889Z,100945.36
2019-03-22T18:41:23.730Z,100948.92
2019-03-22T18:44:02.786Z,100950.67
2019-03-22T18:46:41.737Z,100948.36
2019-03-22T18:49:24.727Z,100953.13
2019-03-22T18:52:10.745Z,100957.90
2019-03-22T18:54:48.598Z,100958.74
2019-03-22T18:57:23.691Z,100963.31
2019-03-22T18:59:59.440Z,100967.89
2019-03-22T19:02:38.956Z,100970.68
2019-03-22T19:05:14.729Z,100963.50
2019-03-22T19:07:51.361Z,100965.05
2019-03-22T19:10:27.452Z,100964.78
2019-03-22T19:13:02.901Z,100960.97
2019-03-22T19:15:41.249Z,100963.02
2019-03-22T19:18:17.258Z,100956.53
2019-03-22T19:20:53.104Z,100964.38
2019-03-22T19:23:32.151Z,100959.63
2019-03-22T19:26:07.210Z,100963.16
2019-03-22T19:28:44.547Z,100963.42
2019-03-22T19:31:20.128Z,100959.44
2019-03-22T19:33:54.896Z,100953.45
2019-03-22T19:36:30.357Z,100954.82
2019-03-22T19:39:08.002Z,100949.83
2019-03-22T19:41:45.787Z,100954.23
2019-03-22T19:44:20.432Z,100951.73
2019-03-22T19:46:56.655Z,100959.10
2019-03-22T19:49:32.205Z,100960.28
2019-03-22T19:52:07.555Z,100958.88
2019-03-22T19:54:43.026Z,100955.91
2019-03-22T19:57:18.458Z,100955.45
2019-03-22T19:59:53.258Z,100954.11
2019-03-22T20:02:30.402Z,100957.42
2019-03-22T20:05:06.852Z,100960.77
2019-03-22T20:07:43.257Z,100963.49
2019-03-22T20:10:21.549Z,100962.95
2019-03-22T20:13:00.483Z,100967.28
2019-03-22T20:15:36.240Z,100969.13
2019-03-22T20:18:14.573Z,100966.02
2019-03-22T20:20:52.742Z,100965.91
2019-03-22T20:23:28.915Z,100963.69
2019-03-22T20:26:03.968Z,100964.18
2019-03-22T20:28:50.784Z,100962.08
2019-03-22T20:31:27.342Z,100958.83
2019-03-22T20:34:03.008Z,100960.48
2019-03-22T20:36:43.829Z,100959.17
2019-03-22T20:39:20.909Z,100957.33
2019-03-22T20:41:57.049Z,100959.17
2019-03-22T20:44:34.327Z,100957.36
2019-03-22T20:47:11.553Z,100957.52
2019-03-22T20:49:47.209Z,100949.37
2019-03-22T20:52:23.441Z,100949.34
2019-03-22T20:54:59.677Z,100946.88
2019-03-22T20:57:44.910Z,100945.91
2019-03-22T21:00:19.551Z,100949.75
2019-03-22T21:02:54.335Z,100947.04
2019-03-22T21:05:29.769Z,100945.64
2019-03-22T21:08:05.422Z,100938.20
2019-03-22T21:10:46.023Z,100944.22
2019-03-22T21:13:22.203Z,100938.44
2019-03-22T21:15:59.153Z,100937.67
2019-03-22T21:18:35.827Z,100937.38
2019-03-22T21:21:11.454Z,100931.07
2019-03-22T21:23:48.862Z,100931.39
2019-03-22T21:26:24.584Z,100922.91
2019-03-22T21:29:00.456Z,100924.98
2019-03-22T21:31:36.767Z,100927.81
2019-03-22T21:34:15.432Z,100931.91
2019-03-22T21:36:53.232Z,100931.28
2019-03-22T21:39:29.177Z,100933.38
2019-03-22T21:42:06.258Z,100936.11
2019-03-22T21:44:46.772Z,100935.50
2019-03-22T21:47:22.608Z,100928.21
2019-03-22T21:49:57.721Z,100931.58
2019-03-22T21:52:36.571Z,100929.94
2019-03-22T21:55:12.080Z,100933.17
2019-03-22T21:57:49.172Z,100933.25
2019-03-22T22:00:23.774Z,100930.84
2019-03-22T22:03:00.873Z,100928.52
2019-03-22T22:05:47.409Z,100938.23
2019-03-22T22:08:23.276Z,100941.66
2019-03-22T22:10:59.934Z,100934.91
2019-03-22T22:13:39.758Z,100938.72
2019-03-22T22:16:20.564Z,100939.41
2019-03-22T22:18:59.693Z,100943.13
2019-03-22T22:21:37.031Z,100945.75
2019-03-22T22:24:13.027Z,100939.50
2019-03-22T22:26:48.093Z,100941.84
2019-03-22T22:29:25.857Z,100939.44
2019-03-22T22:32:01.492Z,100932.85
2019-03-22T22:34:36.584Z,100936.78
2019-03-22T22:37:13.315Z,100938.69
2019-03-22T22:39:49.557Z,100937.02
2019-03-22T22:42:24.740Z,100939.18
2019-03-22T22:45:00.730Z,100932.73
2019-03-22T22:47:39.272Z,100941.94
2019-03-22T22:50:15.784Z,100941.77
2019-03-22T22:52:51.475Z,100945.73
2019-03-22T22:55:26.611Z,100938.72
2019-03-22T22:58:02.394Z,100941.03
2019-03-22T23:00:38.420Z,100946.55
2019-03-22T23:03:13.175Z,100949.65
2019-03-22T23:05:49.002Z,100948.52
2019-03-22T23:08:24.947Z,100948.45
2019-03-22T23:11:04.071Z,100956.23
2019-03-22T23:13:39.307Z,100959.48
2019-03-22T23:16:14.429Z,100960.42
2019-03-22T23:18:50.873Z,100961.70
2019-03-22T23:21:25.959Z,100955.70
2019-03-22T23:24:00.847Z,100963.48
2019-03-22T23:26:36.320Z,100957.38
2019-03-22T23:29:13.319Z,100966.77
2019-03-22T23:31:49.404Z,100966.73
2019-03-22T23:34:24.454Z,100967.20
2019-03-22T23:36:59.098Z,100970.69
2019-03-22T23:39:34.033Z,100973.01
2019-03-22T23:42:09.694Z,100972.07
2019-03-22T23:44:44.329Z,100969.09
2019-03-22T23:47:22.432Z,100966.08
2019-03-22T23:49:57.583Z,100972.13
2019-03-22T23:52:34.460Z,100972.26
2019-03-22T23:55:09.969Z,100975.86
2019-03-22T23:57:45.282Z,100975.42
